createdAt,value
2023-08-24T00:02:12.032Z,16.85
2023-08-24T00:04:39.328Z,15.63
2023-08-24T00:07:06.782Z,15.68
2023-08-24T00:09:34.059Z,13.27
2023-08-24T00:12:01.534Z,17.90
2023-08-24T00:14:29.194Z,16.30
2023-08-24T00:16:56.545Z,16.33
2023-08-24T00:19:23.844Z,13.32
2023-08-24T00:21:51.242Z,16.53
2023-08-24T00:24:18.622Z,17.58
2023-08-24T00:26:46.038Z,16.98
2023-08-24T00:29:13.377Z,16.95
2023-08-24T00:31:40.840Z,15.95
2023-08-24T00:34:08.151Z,17.27
2023-08-24T00:36:35.849Z,15.20
2023-08-24T00:39:03.487Z,17.80
2023-08-24T00:41:31.237Z,16.17
2023-08-24T00:43:58.966Z,16.20
2023-08-24T00:46:28.299Z,16.13
2023-08-24T00:48:58.428Z,18.45
2023-08-24T00:51:25.891Z,16.17
2023-08-24T00:53:53.278Z,17.08
2023-08-24T00:56:25.789Z,16.95
2023-08-24T00:58:53.536Z,14.83
2023-08-24T01:01:21.135Z,13.43
2023-08-24T01:03:48.543Z,15.75
2023-08-24T01:06:15.874Z,15.48
2023-08-24T01:08:43.328Z,16.63
2023-08-24T01:11:16.690Z,14.30
2023-08-24T01:13:49.097Z,16.48
2023-08-24T01:16:22.554Z,12.60
2023-08-24T01:18:50.081Z,14.05
2023-08-24T01:21:18.135Z,16.13
2023-08-24T01:24:13.629Z,14.23
2023-08-24T01:26:41.308Z,13.10
2023-08-24T01:29:08.572Z,16.20
2023-08-24T01:31:36.042Z,15.38
2023-08-24T01:34:03.341Z,13.15
2023-08-24T01:36:31.777Z,14.73
2023-08-24T01:39:19.465Z,13.30
2023-08-24T01:41:47.125Z,15.10
2023-08-24T01:44:14.521Z,12.52
2023-08-24T01:46:41.901Z,12.98
2023-08-24T01:49:09.261Z,13.60
2023-08-24T01:51:36.652Z,12.45
2023-08-24T01:54:04.267Z,11.77
2023-08-24T01:56:31.599Z,12.50
2023-08-24T01:58:59.479Z,11.00
2023-08-24T02:01:27.004Z,13.63
2023-08-24T02:03:54.358Z,13.38
2023-08-24T02:06:21.739Z,12.32
2023-08-24T02:08:49.429Z,12.25
2023-08-24T02:11:17.006Z,12.40
2023-08-24T02:13:44.286Z,12.90
2023-08-24T02:16:12.737Z,11.80
2023-08-24T02:18:40.033Z,11.80
2023-08-24T02:21:12.975Z,14.30
2023-08-24T02:23:41.071Z,12.40
2023-08-24T02:26:08.738Z,14.93
2023-08-24T02:28:37.569Z,11.77
2023-08-24T02:31:05.212Z,13.07
2023-08-24T02:33:32.759Z,11.07
2023-08-24T02:36:00.219Z,12.50
2023-08-24T02:38:27.648Z,13.20
2023-08-24T02:41:04.963Z,13.32
2023-08-24T02:43:32.896Z,14.70
2023-08-24T02:46:08.589Z,16.33
2023-08-24T02:48:36.200Z,19.15
2023-08-24T02:51:04.767Z,16.47
2023-08-24T02:53:32.182Z,13.02
2023-08-24T02:55:59.672Z,13.88
2023-08-24T02:58:28.817Z,14.88
2023-08-24T03:00:56.588Z,12.82
2023-08-24T03:03:24.736Z,13.30
2023-08-24T03:05:58.814Z,13.65
2023-08-24T03:08:28.413Z,14.02
2023-08-24T03:10:55.929Z,12.73
2023-08-24T03:13:23.936Z,13.93
2023-08-24T03:15:53.368Z,13.23
2023-08-24T03:18:21.319Z,14.48
2023-08-24T03:20:49.415Z,14.10
2023-08-24T03:23:17.569Z,13.73
2023-08-24T03:25:45.320Z,13.80
2023-08-24T03:28:12.769Z,15.30
2023-08-24T03:30:46.629Z,15.02
2023-08-24T03:33:14.479Z,14.15
2023-08-24T03:35:41.950Z,13.02
2023-08-24T03:38:09.424Z,16.25
2023-08-24T03:40:36.741Z,13.80
2023-08-24T03:43:04.464Z,14.80
2023-08-24T03:45:31.992Z,15.18
2023-08-24T03:47:59.593Z,14.82
2023-08-24T03:50:27.667Z,15.88
2023-08-24T03:52:55.817Z,12.67
2023-08-24T03:55:24.223Z,14.27
2023-08-24T03:57:52.028Z,13.98
2023-08-24T04:00:19.685Z,15.57
2023-08-24T04:02:47.329Z,14.68
2023-08-24T04:05:22.230Z,14.27
2023-08-24T04:07:50.000Z,20.40
2023-08-24T04:10:17.413Z,16.13
2023-08-24T04:12:44.814Z,13.60
2023-08-24T04:15:12.362Z,16.30
2023-08-24T04:17:41.799Z,13.13
2023-08-24T04:20:11.646Z,16.83
2023-08-24T04:22:38.967Z,19.95
2023-08-24T04:25:07.403Z,14.38
2023-08-24T04:27:34.737Z,14.02
2023-08-24T04:30:02.112Z,16.90
2023-08-24T04:32:29.478Z,13.63
2023-08-24T04:34:57.014Z,13.55
2023-08-24T04:37:24.356Z,14.07
2023-08-24T04:39:51.637Z,14.00
2023-08-24T04:42:19.004Z,15.13
2023-08-24T04:44:46.389Z,14.80
2023-08-24T04:47:13.695Z,15.85
2023-08-24T04:49:41.064Z,14.27
2023-08-24T04:52:08.347Z,15.27
2023-08-24T04:54:35.779Z,14.20
2023-08-24T04:57:03.386Z,12.82
2023-08-24T04:59:30.703Z,15.30
2023-08-24T05:01:58.194Z,17.83
2023-08-24T05:04:25.804Z,14.68
2023-08-24T05:06:53.029Z,13.50
2023-08-24T05:09:20.462Z,17.53
2023-08-24T05:11:47.793Z,17.52
2023-08-24T05:14:15.354Z,18.38
2023-08-24T05:16:42.878Z,18.98
2023-08-24T05:19:10.356Z,14.32
2023-08-24T05:21:37.635Z,16.67
2023-08-24T05:24:05.525Z,13.95
2023-08-24T05:26:33.049Z,12.70
2023-08-24T05:29:00.372Z,15.82
2023-08-24T05:31:27.773Z,14.18
2023-08-24T05:33:55.153Z,14.33
2023-08-24T05:36:22.417Z,15.63
2023-08-24T05:41:20.357Z,16.42
2023-08-24T05:43:48.507Z,15.38
2023-08-24T05:46:16.076Z,18.30
2023-08-24T05:48:43.581Z,14.77
2023-08-24T05:51:13.581Z,19.15
2023-08-24T05:53:42.120Z,18.48
2023-08-24T05:56:10.095Z,16.35
2023-08-24T05:58:37.557Z,17.73
2023-08-24T06:01:04.880Z,15.93
2023-08-24T06:03:32.482Z,14.45
2023-08-24T06:06:04.889Z,16.50
2023-08-24T06:08:32.912Z,16.95
2023-08-24T06:11:23.663Z,16.97
2023-08-24T06:13:55.928Z,15.00
2023-08-24T06:16:24.219Z,14.75
2023-08-24T06:18:51.791Z,14.13
2023-08-24T06:21:19.699Z,13.10
2023-08-24T06:23:48.731Z,13.57
2023-08-24T06:26:16.470Z,14.68
2023-08-24T06:28:44.391Z,15.60
2023-08-24T06:31:12.197Z,14.48
2023-08-24T06:33:39.605Z,13.60
2023-08-24T06:36:09.187Z,14.07
2023-08-24T06:38:37.284Z,13.98
2023-08-24T06:41:05.016Z,14.30
2023-08-24T06:43:32.344Z,15.00
2023-08-24T06:46:00.079Z,13.20
2023-08-24T06:48:27.680Z,14.00
2023-08-24T06:50:55.339Z,12.75
2023-08-24T06:53:23.552Z,15.57
2023-08-24T06:55:58.134Z,11.73
2023-08-24T06:58:25.489Z,11.18
2023-08-24T07:00:52.872Z,12.17
2023-08-24T07:03:20.326Z,11.23
2023-08-24T07:05:47.725Z,13.95
2023-08-24T07:08:15.409Z,13.82
2023-08-24T07:10:43.746Z,11.88
2023-08-24T07:13:11.233Z,12.93
2023-08-24T07:15:38.707Z,14.47
2023-08-24T07:18:06.884Z,13.13
2023-08-24T07:20:34.530Z,12.90
2023-08-24T07:23:02.351Z,10.95
2023-08-24T07:25:29.636Z,12.43
2023-08-24T07:27:59.583Z,12.17
2023-08-24T07:30:33.877Z,11.23
2023-08-24T07:33:04.419Z,12.35
2023-08-24T07:35:32.299Z,12.70
2023-08-24T07:37:59.699Z,11.77
2023-08-24T07:40:27.516Z,11.93
2023-08-24T07:42:56.574Z,13.23
2023-08-24T07:45:26.872Z,14.95
2023-08-24T07:47:55.825Z,11.95
2023-08-24T07:50:24.124Z,11.10
2023-08-24T07:52:52.766Z,10.70
2023-08-24T07:55:21.402Z,11.68
2023-08-24T07:57:50.591Z,14.07
2023-08-24T08:00:18.430Z,12.50
2023-08-24T08:02:45.805Z,10.75
2023-08-24T08:05:13.869Z,14.53
2023-08-24T08:07:41.324Z,11.07
2023-08-24T08:10:09.074Z,11.45
2023-08-24T08:12:37.087Z,12.02
2023-08-24T08:15:05.226Z,12.98
2023-08-24T08:17:50.074Z,13.63
2023-08-24T08:20:17.773Z,13.32
2023-08-24T08:22:46.110Z,12.25
2023-08-24T08:25:16.268Z,13.13
2023-08-24T08:27:45.264Z,12.38
2023-08-24T08:30:13.407Z,14.23
2023-08-24T08:32:40.878Z,11.70
2023-08-24T08:35:09.611Z,12.48
2023-08-24T08:37:37.520Z,12.45
2023-08-24T08:40:10.711Z,17.77
2023-08-24T08:42:38.457Z,12.17
2023-08-24T08:45:09.470Z,12.02
2023-08-24T08:47:37.142Z,12.60
2023-08-24T08:50:04.943Z,11.02
2023-08-24T08:52:35.150Z,13.45
2023-08-24T08:55:07.521Z,12.10
2023-08-24T08:57:35.501Z,12.13
2023-08-24T09:00:03.712Z,15.40
2023-08-24T09:02:31.168Z,12.63
2023-08-24T09:04:58.870Z,13.13
2023-08-24T09:07:26.393Z,11.83
2023-08-24T09:09:53.856Z,12.82
2023-08-24T09:12:24.600Z,13.23
2023-08-24T09:14:55.934Z,12.02
2023-08-24T09:17:24.249Z,12.48
2023-08-24T09:19:53.858Z,12.23
2023-08-24T09:22:22.144Z,12.98
2023-08-24T09:24:51.122Z,10.85
2023-08-24T09:27:19.901Z,12.50
2023-08-24T09:29:54.007Z,13.35
2023-08-24T09:32:24.920Z,13.23
2023-08-24T09:34:53.026Z,11.30
2023-08-24T09:37:21.327Z,10.10
2023-08-24T09:39:49.517Z,13.23
2023-08-24T09:42:18.750Z,10.65
2023-08-24T09:44:49.527Z,12.83
2023-08-24T09:47:16.927Z,11.80
2023-08-24T09:49:44.337Z,10.65
2023-08-24T09:52:13.129Z,11.60
2023-08-24T09:54:40.460Z,9.77
2023-08-24T09:57:09.693Z,11.17
2023-08-24T09:59:37.060Z,12.32
2023-08-24T10:02:05.160Z,10.68
2023-08-24T10:04:34.950Z,12.43
2023-08-24T10:07:12.148Z,14.57
2023-08-24T10:09:45.779Z,11.07
2023-08-24T10:12:13.119Z,12.63
2023-08-24T10:14:48.564Z,12.30
2023-08-24T10:17:16.052Z,12.45
2023-08-24T10:19:43.855Z,12.27
2023-08-24T10:22:11.273Z,11.03
2023-08-24T10:24:38.566Z,10.93
2023-08-24T10:27:06.090Z,12.60
2023-08-24T10:29:33.440Z,11.73
2023-08-24T10:32:00.942Z,10.77
2023-08-24T10:34:28.272Z,10.53
2023-08-24T10:36:55.954Z,10.52
2023-08-24T10:39:30.392Z,11.27
2023-08-24T10:41:57.895Z,11.32
2023-08-24T10:44:39.089Z,11.60
2023-08-24T10:47:07.928Z,10.70
2023-08-24T10:49:35.283Z,12.80
2023-08-24T10:52:24.413Z,10.70
2023-08-24T10:54:55.005Z,10.77
2023-08-24T10:57:28.739Z,10.40
2023-08-24T11:00:15.446Z,11.03
2023-08-24T11:02:49.762Z,8.73
2023-08-24T11:05:26.052Z,10.50
2023-08-24T11:07:57.842Z,12.90
2023-08-24T11:10:26.699Z,12.32
2023-08-24T11:13:03.906Z,11.33
2023-08-24T11:15:32.515Z,11.13
2023-08-24T11:18:24.820Z,11.43
2023-08-24T11:20:56.396Z,9.60
2023-08-24T11:23:25.085Z,10.82
2023-08-24T11:25:56.224Z,11.90
2023-08-24T11:28:24.386Z,10.25
2023-08-24T11:30:54.475Z,11.43
2023-08-24T11:33:31.521Z,12.00
2023-08-24T11:35:59.402Z,11.23
2023-08-24T11:38:26.954Z,13.10
2023-08-24T11:40:54.463Z,11.18
2023-08-24T11:43:28.307Z,10.70
2023-08-24T11:45:55.777Z,10.70
2023-08-24T11:48:27.596Z,9.38
2023-08-24T11:50:56.274Z,10.67
2023-08-24T11:53:25.559Z,10.23
2023-08-24T11:56:05.664Z,14.10
2023-08-24T11:58:33.801Z,12.40
2023-08-24T12:01:01.769Z,10.45
2023-08-24T12:03:29.397Z,12.00
2023-08-24T12:06:01.214Z,10.48
2023-08-24T12:08:28.649Z,12.10
2023-08-24T12:10:56.581Z,10.18
2023-08-24T12:13:24.049Z,11.68
2023-08-24T12:15:54.105Z,11.37
2023-08-24T12:18:21.580Z,10.38
2023-08-24T12:20:48.982Z,9.52
2023-08-24T12:23:16.365Z,10.95
2023-08-24T12:25:44.256Z,10.98
2023-08-24T12:28:16.384Z,9.97
2023-08-24T12:30:50.916Z,12.02
2023-08-24T12:33:28.838Z,13.60
2023-08-24T12:35:57.021Z,10.55
2023-08-24T12:38:25.182Z,10.15
2023-08-24T12:40:53.517Z,11.90
2023-08-24T12:43:21.103Z,12.50
2023-08-24T12:45:48.893Z,11.73
2023-08-24T12:48:16.661Z,12.20
2023-08-24T12:50:44.249Z,10.38
2023-08-24T12:53:11.664Z,11.97
2023-08-24T12:55:40.509Z,10.98
2023-08-24T12:58:08.280Z,10.18
2023-08-24T13:00:35.862Z,9.82
2023-08-24T13:03:03.443Z,11.23
2023-08-24T13:05:32.670Z,12.13
2023-08-24T13:08:00.784Z,9.57
2023-08-24T13:10:28.823Z,9.77
2023-08-24T13:12:57.731Z,10.65
2023-08-24T13:15:25.446Z,9.48
2023-08-24T13:17:53.378Z,10.60
2023-08-24T13:20:21.323Z,11.07
2023-08-24T13:22:48.640Z,11.30
2023-08-24T13:25:16.401Z,9.43
2023-08-24T13:27:43.958Z,11.25
2023-08-24T13:30:11.615Z,9.57
2023-08-24T13:32:40.242Z,11.75
2023-08-24T13:35:10.270Z,11.50
2023-08-24T13:37:37.915Z,13.27
2023-08-24T13:40:06.088Z,10.93
2023-08-24T13:42:33.492Z,8.90
2023-08-24T13:45:00.847Z,12.35
2023-08-24T13:47:28.328Z,10.30
2023-08-24T13:49:55.763Z,9.88
2023-08-24T13:52:23.378Z,13.07
2023-08-24T13:55:03.240Z,9.80
2023-08-24T13:57:38.249Z,10.57
2023-08-24T14:00:09.105Z,11.30
2023-08-24T14:02:40.164Z,11.38
2023-08-24T14:05:10.510Z,9.18
2023-08-24T14:07:38.313Z,10.67
2023-08-24T14:10:07.851Z,9.93
2023-08-24T14:12:35.554Z,13.75
2023-08-24T14:15:03.302Z,9.73
2023-08-24T14:17:31.238Z,11.10
2023-08-24T14:19:58.853Z,10.30
2023-08-24T14:22:27.136Z,9.27
2023-08-24T14:24:54.611Z,11.48
2023-08-24T14:27:21.997Z,9.90
2023-08-24T14:29:49.431Z,13.27
2023-08-24T14:32:17.123Z,9.97
2023-08-24T14:34:44.708Z,10.30
2023-08-24T14:37:12.285Z,9.70
2023-08-24T14:39:39.717Z,10.57
2023-08-24T14:42:08.138Z,9.82
2023-08-24T14:44:36.350Z,10.80
2023-08-24T14:47:03.974Z,9.02
2023-08-24T14:49:31.643Z,12.40
2023-08-24T14:51:59.326Z,12.77
2023-08-24T14:54:26.915Z,11.07
2023-08-24T14:56:54.615Z,9.27
2023-08-24T14:59:23.655Z,11.38
2023-08-24T15:01:51.222Z,11.50
2023-08-24T15:04:18.613Z,11.35
2023-08-24T15:06:46.166Z,10.05
2023-08-24T15:09:13.488Z,12.30
2023-08-24T15:11:40.888Z,10.73
2023-08-24T15:14:08.457Z,11.25
2023-08-24T15:16:35.941Z,10.57
2023-08-24T15:19:03.536Z,10.10
2023-08-24T15:21:30.882Z,9.77
2023-08-24T15:23:58.356Z,12.88
2023-08-24T15:26:25.927Z,13.73
2023-08-24T15:29:13.049Z,9.13
2023-08-24T15:31:41.081Z,12.75
2023-08-24T15:34:08.873Z,9.27
2023-08-24T15:36:36.353Z,10.55
2023-08-24T15:39:04.536Z,10.15
2023-08-24T15:41:31.987Z,10.40
2023-08-24T15:43:59.425Z,8.60
2023-08-24T15:46:26.987Z,9.13
2023-08-24T15:48:57.091Z,10.70
2023-08-24T15:51:25.024Z,11.13
2023-08-24T15:53:52.425Z,9.15
2023-08-24T15:56:20.187Z,21.83
2023-08-24T15:58:47.953Z,11.90
2023-08-24T16:01:15.416Z,13.48
2023-08-24T16:03:43.476Z,9.75
2023-08-24T16:06:10.969Z,10.95
2023-08-24T16:08:38.304Z,12.23
2023-08-24T16:11:06.198Z,11.30
2023-08-24T16:13:33.719Z,11.52
2023-08-24T16:16:01.141Z,11.40
2023-08-24T16:18:28.440Z,11.70
2023-08-24T16:20:55.987Z,13.75
2023-08-24T16:23:23.527Z,11.77
2023-08-24T16:25:50.949Z,11.57
2023-08-24T16:28:18.522Z,10.68
2023-08-24T16:30:49.691Z,11.95
2023-08-24T16:33:20.397Z,10.95
2023-08-24T16:35:48.609Z,13.60
2023-08-24T16:38:16.542Z,10.88
2023-08-24T16:40:44.198Z,11.60
2023-08-24T16:43:14.663Z,10.68
2023-08-24T16:45:42.254Z,11.43
2023-08-24T16:48:10.044Z,12.20
2023-08-24T16:50:37.428Z,12.65
2023-08-24T16:53:05.064Z,12.75
2023-08-24T16:55:32.568Z,13.05
2023-08-24T16:57:59.976Z,10.43
2023-08-24T17:00:27.465Z,11.70
2023-08-24T17:02:56.780Z,9.93
2023-08-24T17:05:24.589Z,12.85
2023-08-24T17:08:11.290Z,10.93
2023-08-24T17:10:40.594Z,11.48
2023-08-24T17:13:08.279Z,11.47
2023-08-24T17:15:35.860Z,10.68
2023-08-24T17:18:04.101Z,12.05
2023-08-24T17:20:31.507Z,13.75
2023-08-24T17:22:59.020Z,12.15
2023-08-24T17:25:26.528Z,9.50
2023-08-24T17:27:54.273Z,11.20
2023-08-24T17:30:22.100Z,12.52
2023-08-24T17:32:49.472Z,12.98
2023-08-24T17:35:17.208Z,13.82
2023-08-24T17:37:44.555Z,11.27
2023-08-24T17:40:13.658Z,12.35
2023-08-24T17:42:41.311Z,14.70
2023-08-24T17:45:09.815Z,13.60
2023-08-24T17:47:37.490Z,11.20
2023-08-24T17:50:09.798Z,10.87
2023-08-24T17:52:37.314Z,12.15
2023-08-24T17:55:06.370Z,11.50
2023-08-24T17:57:34.396Z,12.52
2023-08-24T18:00:02.920Z,12.20
2023-08-24T18:02:33.756Z,12.93
2023-08-24T18:05:01.347Z,11.77
2023-08-24T18:07:28.864Z,12.13
2023-08-24T18:09:56.668Z,15.57
2023-08-24T18:12:24.714Z,13.93
2023-08-24T18:14:52.142Z,11.70
2023-08-24T18:17:19.664Z,11.23
2023-08-24T18:19:47.381Z,13.52
2023-08-24T18:22:14.788Z,13.73
2023-08-24T18:24:43.936Z,14.63
2023-08-24T18:27:11.509Z,15.23
2023-08-24T18:29:39.290Z,12.25
2023-08-24T18:32:06.984Z,17.65
2023-08-24T18:34:34.892Z,13.35
2023-08-24T18:37:02.323Z,13.40
2023-08-24T18:39:30.479Z,12.07
2023-08-24T18:41:58.330Z,14.70
2023-08-24T18:44:26.018Z,14.77
2023-08-24T18:46:54.388Z,19.67
2023-08-24T18:49:22.121Z,15.85
2023-08-24T18:51:52.254Z,14.27
2023-08-24T18:54:19.910Z,12.23
2023-08-24T18:56:47.497Z,15.45
2023-08-24T18:59:15.026Z,15.20
2023-08-24T19:01:42.578Z,12.75
2023-08-24T19:04:10.212Z,12.53
2023-08-24T19:06:46.648Z,13.68
2023-08-24T19:09:14.862Z,13.63
2023-08-24T19:11:42.266Z,13.38
2023-08-24T19:14:09.749Z,15.43
2023-08-24T19:16:37.375Z,12.67
2023-08-24T19:19:05.050Z,13.07
2023-08-24T19:21:32.599Z,13.27
2023-08-24T19:24:00.052Z,15.85
2023-08-24T19:26:27.560Z,14.23
2023-08-24T19:28:55.116Z,13.63
2023-08-24T19:31:22.620Z,12.75
2023-08-24T19:33:50.292Z,14.32
2023-08-24T19:36:17.806Z,12.23
2023-08-24T19:38:45.395Z,18.23
2023-08-24T19:41:12.797Z,13.33
2023-08-24T19:43:40.236Z,16.23
2023-08-24T19:46:07.895Z,17.98
2023-08-24T19:48:36.842Z,16.40
2023-08-24T19:51:04.127Z,16.80
2023-08-24T19:53:31.582Z,13.67
2023-08-24T19:55:58.961Z,17.23
2023-08-24T19:58:26.578Z,15.73
2023-08-24T20:00:56.950Z,16.92
2023-08-24T20:03:24.765Z,15.20
2023-08-24T20:05:59.098Z,15.27
2023-08-24T20:08:29.635Z,14.07
2023-08-24T20:10:57.822Z,16.58
2023-08-24T20:13:25.238Z,16.23
2023-08-24T20:15:52.593Z,20.02
2023-08-24T20:18:20.091Z,15.40
2023-08-24T20:20:48.286Z,13.55
2023-08-24T20:23:15.589Z,16.20
2023-08-24T20:25:43.184Z,17.02
2023-08-24T20:28:10.660Z,16.60
2023-08-24T20:30:38.152Z,18.30
2023-08-24T20:33:05.643Z,13.40
2023-08-24T20:35:33.396Z,17.13
2023-08-24T20:38:00.765Z,16.88
2023-08-24T20:40:29.138Z,13.63
2023-08-24T20:42:56.607Z,15.70
2023-08-24T20:45:24.127Z,15.93
2023-08-24T20:47:51.928Z,17.02
2023-08-24T20:50:19.643Z,14.90
2023-08-24T20:52:46.950Z,14.65
2023-08-24T20:55:15.419Z,15.40
2023-08-24T20:57:42.957Z,16.02
2023-08-24T21:00:12.538Z,18.90
2023-08-24T21:02:40.159Z,18.13
2023-08-24T21:05:08.403Z,17.77
2023-08-24T21:07:35.717Z,18.67
2023-08-24T21:10:03.287Z,17.10
2023-08-24T21:12:30.741Z,20.95
2023-08-24T21:14:58.340Z,29.35
2023-08-24T21:17:27.392Z,26.17
2023-08-24T21:19:54.948Z,26.37
2023-08-24T21:22:22.308Z,27.20
2023-08-24T21:24:49.915Z,27.88
2023-08-24T21:27:17.454Z,31.73
2023-08-24T21:29:45.488Z,33.58
2023-08-24T21:32:12.970Z,25.97
2023-08-24T21:34:40.573Z,26.95
2023-08-24T21:37:07.919Z,24.92
2023-08-24T21:39:35.360Z,34.25
2023-08-24T21:42:03.089Z,21.83
2023-08-24T21:44:30.653Z,21.93
2023-08-24T21:46:58.049Z,19.05
2023-08-24T21:49:25.777Z,19.75
2023-08-24T21:51:53.165Z,24.02
2023-08-24T21:54:20.600Z,26.77
2023-08-24T21:56:48.058Z,31.63
2023-08-24T21:59:15.517Z,31.40
2023-08-24T22:01:42.952Z,41.03
2023-08-24T22:04:10.719Z,34.10
2023-08-24T22:06:38.215Z,45.38
2023-08-24T22:09:05.831Z,40.53
2023-08-24T22:11:33.100Z,39.08
2023-08-24T22:14:01.007Z,33.70
2023-08-24T22:16:31.627Z,39.20
2023-08-24T22:18:59.089Z,38.53
2023-08-24T22:21:26.890Z,84.47
2023-08-24T22:23:54.532Z,72.72
2023-08-24T22:26:22.495Z,53.67
2023-08-24T22:28:49.885Z,33.50
2023-08-24T22:31:18.041Z,30.73
2023-08-24T22:33:45.416Z,21.93
2023-08-24T22:36:13.396Z,21.30
2023-08-24T22:38:40.931Z,21.17
2023-08-24T22:41:08.358Z,17.65
2023-08-24T22:43:35.925Z,17.88
2023-08-24T22:46:04.470Z,16.97
2023-08-24T22:48:31.961Z,17.67
2023-08-24T22:50:59.453Z,18.17
2023-08-24T22:53:26.952Z,17.38
2023-08-24T22:55:54.381Z,18.17
2023-08-24T22:58:22.032Z,17.97
2023-08-24T23:00:49.392Z,15.45
2023-08-24T23:03:16.846Z,16.77
2023-08-24T23:05:44.218Z,17.17
2023-08-24T23:08:11.848Z,15.88
2023-08-24T23:10:39.632Z,16.27
2023-08-24T23:13:07.808Z,16.77
2023-08-24T23:15:35.446Z,15.07
2023-08-24T23:18:03.192Z,16.80
2023-08-24T23:20:30.694Z,15.88
2023-08-24T23:22:58.034Z,17.03
2023-08-24T23:25:25.526Z,18.02
2023-08-24T23:27:54.474Z,18.77
2023-08-24T23:30:22.184Z,17.48
2023-08-24T23:32:49.875Z,17.30
2023-08-24T23:35:17.384Z,17.40
2023-08-24T23:37:44.953Z,17.10
2023-08-24T23:40:13.823Z,16.58
2023-08-24T23:42:42.144Z,16.63
2023-08-24T23:45:11.357Z,16.75
2023-08-24T23:47:39.452Z,18.87
2023-08-24T23:50:07.322Z,17.60
2023-08-24T23:52:35.040Z,15.88
2023-08-24T23:55:03.821Z,16.00
2023-08-24T23:57:31.315Z,15.60
2023-08-24T23:59:59.182Z,14.20
